sensor_id;sensor_type;location;lat;lon;timestamp;pressure;altitude;pressure_sealevel;temperature;humidity
7105;BME280;3594;42.152;24.714;2023-06-14T00:01:00;36316.63;;;19.45;nan
7105;BME280;3594;42.152;24.714;2023-06-14T00:03:28;37737.81;;;19.74;nan
7105;BME280;3594;42.152;24.714;2023-06-14T00:05:54;37140.63;;;19.78;nan
7105;BME280;3594;42.152;24.714;2023-06-14T00:08:19;34689.56;;;19.72;nan
7105;BME280;3594;42.152;24.714;2023-06-14T00:10:46;30412.50;;;19.71;nan
7105;BME280;3594;42.152;24.714;2023-06-14T00:13:12;24810.56;;;19.37;nan
7105;BME280;3594;42.152;24.714;2023-06-14T00:15:38;29088.78;;;19.56;nan
7105;BME280;3594;42.152;24.714;2023-06-14T00:18:04;24812.66;;;19.41;nan
7105;BME280;3594;42.152;24.714;2023-06-14T00:20:31;21541.25;;;19.58;nan
7105;BME280;3594;42.152;24.714;2023-06-14T00:22:58;21205.75;;;19.41;nan
7105;BME280;3594;42.152;24.714;2023-06-14T00:25:24;17273.69;;;19.36;nan
7105;BME280;3594;42.152;24.714;2023-06-14T00:27:53;10090.44;;;19.69;nan
7105;BME280;3594;42.152;24.714;2023-06-14T00:30:19;7478.72;;;19.74;nan
7105;BME280;3594;42.152;24.714;2023-06-14T00:32:45;12383.94;;;19.86;nan
7105;BME280;3594;42.152;24.714;2023-06-14T00:35:11;10412.87;;;19.54;nan
7105;BME280;3594;42.152;24.714;2023-06-14T00:37:36;-1329.25;;;19.33;nan
7105;BME280;3594;42.152;24.714;2023-06-14T00:40:03;-3279.69;;;19.58;nan
7105;BME280;3594;42.152;24.714;2023-06-14T00:42:29;-1002.78;;;19.44;nan
7105;BME280;3594;42.152;24.714;2023-06-14T00:44:55;951.53;;;19.49;nan
7105;BME280;3594;42.152;24.714;2023-06-14T00:47:20;-1325.25;;;19.75;nan
7105;BME280;3594;42.152;24.714;2023-06-14T00:49:54;-1002.66;;;19.45;nan
7105;BME280;3594;42.152;24.714;2023-06-14T00:52:22;-5557.13;;;19.32;nan
7105;BME280;3594;42.152;24.714;2023-06-14T00:54:49;-4580.16;;;19.75;nan
7105;BME280;3594;42.152;24.714;2023-06-14T00:57:15;-5230.84;;;19.71;nan
7105;BME280;3594;42.152;24.714;2023-06-14T00:59:45;-5881.88;;;19.44;nan
7105;BME280;3594;42.152;24.714;2023-06-14T01:02:12;-8805.56;;;19.33;nan
7105;BME280;3594;42.152;24.714;2023-06-14T01:04:40;-9454.63;;;19.26;nan
7105;BME280;3594;42.152;24.714;2023-06-14T01:12:36;-10754.47;;;19.58;nan
7105;BME280;3594;42.152;24.714;2023-06-14T01:15:04;-10105.22;;;19.59;nan
7105;BME280;3594;42.152;24.714;2023-06-14T01:17:31;-10754.34;;;19.56;nan
7105;BME280;3594;42.152;24.714;2023-06-14T01:20:03;-10429.84;;;19.58;nan
7105;BME280;3594;42.152;24.714;2023-06-14T01:22:34;-10754.53;;;19.59;nan
7105;BME280;3594;42.152;24.714;2023-06-14T01:25:01;-13024.34;;;19.40;nan
7105;BME280;3594;42.152;24.714;2023-06-14T01:27:26;-12700.56;;;19.46;nan
7105;BME280;3594;42.152;24.714;2023-06-14T01:29:55;-12698.25;;;19.20;nan
7105;BME280;3594;42.152;24.714;2023-06-14T01:32:25;-12376.94;;;19.55;nan
7105;BME280;3594;42.152;24.714;2023-06-14T01:34:51;-13021.47;;;19.09;nan
7105;BME280;3594;42.152;24.714;2023-06-14T01:37:17;-13671.88;;;19.30;nan
7105;BME280;3594;42.152;24.714;2023-06-14T01:39:44;-14643.69;;;19.25;nan
7105;BME280;3594;42.152;24.714;2023-06-14T01:42:12;-14964.22;;;18.97;nan
7105;BME280;3594;42.152;24.714;2023-06-14T01:44:40;-15934.56;;;18.89;nan
7105;BME280;3594;42.152;24.714;2023-06-14T01:47:07;-15936.91;;;19.06;nan
7105;BME280;3594;42.152;24.714;2023-06-14T01:49:34;-14641.34;;;19.06;nan
7105;BME280;3594;42.152;24.714;2023-06-14T01:52:00;-13023.75;;;19.33;nan
7105;BME280;3594;42.152;24.714;2023-06-14T01:54:26;-14318.28;;;19.14;nan
7105;BME280;3594;42.152;24.714;2023-06-14T01:56:52;-13671.53;;;19.27;nan
7105;BME280;3594;42.152;24.714;2023-06-14T01:59:18;-13344.84;;;19.02;nan
7105;BME280;3594;42.152;24.714;2023-06-14T02:01:43;-13021.09;;;19.05;nan
7105;BME280;3594;42.152;24.714;2023-06-14T02:04:09;-14318.28;;;19.14;nan
7105;BME280;3594;42.152;24.714;2023-06-14T02:06:35;-13991.94;;;18.92;nan
7105;BME280;3594;42.152;24.714;2023-06-14T02:09:01;-13994.63;;;19.17;nan
7105;BME280;3594;42.152;24.714;2023-06-14T02:11:26;-13993.19;;;19.04;nan
7105;BME280;3594;42.152;24.714;2023-06-14T02:13:52;-12698.03;;;19.17;nan
7105;BME280;3594;42.152;24.714;2023-06-14T02:16:17;-13346.19;;;19.15;nan
7105;BME280;3594;42.152;24.714;2023-06-14T02:18:43;-13343.94;;;18.92;nan
7105;BME280;3594;42.152;24.714;2023-06-14T02:21:08;-13022.19;;;19.17;nan
7105;BME280;3594;42.152;24.714;2023-06-14T02:23:34;-13669.94;;;19.12;nan
7105;BME280;3594;42.152;24.714;2023-06-14T02:25:59;-13992.19;;;18.95;nan
7105;BME280;3594;42.152;24.714;2023-06-14T02:28:25;-13992.81;;;19.01;nan
7105;BME280;3594;42.152;24.714;2023-06-14T02:30:50;-14312.06;;;18.59;nan
7105;BME280;3594;42.152;24.714;2023-06-14T02:33:16;-14634.38;;;18.47;nan
7105;BME280;3594;42.152;24.714;2023-06-14T02:35:42;-14962.19;;;18.81;nan
7105;BME280;3594;42.152;24.714;2023-06-14T02:38:08;-14315.94;;;18.93;nan
7105;BME280;3594;42.152;24.714;2023-06-14T02:40:33;-13018.84;;;18.81;nan
7105;BME280;3594;42.152;24.714;2023-06-14T02:42:59;-13988.22;;;18.59;nan
7105;BME280;3594;42.152;24.714;2023-06-14T02:45:25;-13991.44;;;18.88;nan
7105;BME280;3594;42.152;24.714;2023-06-14T02:47:50;-13991.53;;;18.89;nan
7105;BME280;3594;42.152;24.714;2023-06-14T02:50:16;-13341.22;;;18.65;nan
7105;BME280;3594;42.152;24.714;2023-06-14T02:52:42;-13990.59;;;18.80;nan
7105;BME280;3594;42.152;24.714;2023-06-14T02:55:09;-13343.25;;;18.85;nan
7105;BME280;3594;42.152;24.714;2023-06-14T02:57:35;-13018.59;;;18.78;nan
7105;BME280;3594;42.152;24.714;2023-06-14T03:00:00;-13340.91;;;18.62;nan
7105;BME280;3594;42.152;24.714;2023-06-14T03:02:26;-14310.84;;;18.48;nan
7105;BME280;3594;42.152;24.714;2023-06-14T03:04:51;-13989.28;;;18.68;nan
7105;BME280;3594;42.152;24.714;2023-06-14T03:07:16;-12697.78;;;19.14;nan
7105;BME280;3594;42.152;24.714;2023-06-14T03:09:45;-12698.13;;;19.18;nan
7105;BME280;3594;42.152;24.714;2023-06-14T03:12:10;-14639.34;;;18.89;nan
7105;BME280;3594;42.152;24.714;2023-06-14T03:14:36;-16578.66;;;18.67;nan
7105;BME280;3594;42.152;24.714;2023-06-14T03:17:02;-18191.56;;;18.41;nan
7105;BME280;3594;42.152;24.714;2023-06-14T03:19:30;-18840.50;;;18.54;nan
7105;BME280;3594;42.152;24.714;2023-06-14T03:21:55;-19485.59;;;18.47;nan
7105;BME280;3594;42.152;24.714;2023-06-14T03:24:23;-18511.31;;;18.22;nan
7105;BME280;3594;42.152;24.714;2023-06-14T03:26:49;-19162.41;;;18.47;nan
7105;BME280;3594;42.152;24.714;2023-06-14T03:29:14;-18842.13;;;18.63;nan
7105;BME280;3594;42.152;24.714;2023-06-14T03:31:57;-19167.19;;;18.72;nan
7105;BME280;3594;42.152;24.714;2023-06-14T03:34:23;-19161.63;;;18.43;nan
7105;BME280;3594;42.152;24.714;2023-06-14T03:36:48;-18843.25;;;18.69;nan
7105;BME280;3594;42.152;24.714;2023-06-14T03:39:14;-18847.34;;;18.91;nan
7105;BME280;3594;42.152;24.714;2023-06-14T03:41:40;-18845.44;;;18.81;nan
7105;BME280;3594;42.152;24.714;2023-06-14T03:44:05;-18200.25;;;18.90;nan
7105;BME280;3594;42.152;24.714;2023-06-14T03:46:30;-16586.63;;;19.20;nan
7105;BME280;3594;42.152;24.714;2023-06-14T03:48:56;-17233.84;;;19.17;nan
7105;BME280;3594;42.152;24.714;2023-06-14T03:51:22;-17235.41;;;19.27;nan
7105;BME280;3594;42.152;24.714;2023-06-14T03:53:48;-16583.69;;;19.00;nan
7105;BME280;3594;42.152;24.714;2023-06-14T03:56:13;-17235.56;;;19.28;nan
7105;BME280;3594;42.152;24.714;2023-06-14T03:58:38;-16912.50;;;19.33;nan
7105;BME280;3594;42.152;24.714;2023-06-14T04:01:04;-16908.97;;;19.10;nan
7105;BME280;3594;42.152;24.714;2023-06-14T04:03:29;-16264.78;;;19.33;nan
7105;BME280;3594;42.152;24.714;2023-06-14T04:05:55;-15613.41;;;19.08;nan
7105;BME280;3594;42.152;24.714;2023-06-14T04:08:22;-15289.97;;;19.12;nan
7105;BME280;3594;42.152;24.714;2023-06-14T04:10:47;-15295.50;;;19.54;nan
7105;BME280;3594;42.152;24.714;2023-06-14T04:13:12;-14646.81;;;19.52;nan
7105;BME280;3594;42.152;24.714;2023-06-14T04:15:39;-14320.47;;;19.33;nan
7105;BME280;3594;42.152;24.714;2023-06-14T04:18:07;-13024.53;;;19.42;nan
7105;BME280;3594;42.152;24.714;2023-06-14T04:20:33;-12378.91;;;19.79;nan
7105;BME280;3594;42.152;24.714;2023-06-14T04:23:14;-11729.88;;;19.81;nan
7105;BME280;3594;42.152;24.714;2023-06-14T04:25:40;-11728.47;;;19.62;nan
7105;BME280;3594;42.152;24.714;2023-06-14T04:28:06;-10756.97;;;20.02;nan
7105;BME280;3594;42.152;24.714;2023-06-14T04:30:34;-10755.72;;;19.80;nan
7105;BME280;3594;42.152;24.714;2023-06-14T04:33:01;-10758.09;;;20.22;nan
7105;BME280;3594;42.152;24.714;2023-06-14T04:35:31;-8482.84;;;20.34;nan
7105;BME280;3594;42.152;24.714;2023-06-14T04:37:58;-8808.47;;;20.50;nan
7105;BME280;3594;42.152;24.714;2023-06-14T04:40:24;-8808.69;;;20.59;nan
7105;BME280;3594;42.152;24.714;2023-06-14T04:42:49;-7181.59;;;20.43;nan
7105;BME280;3594;42.152;24.714;2023-06-14T04:45:16;-5228.06;;;20.56;nan
7105;BME280;3594;42.152;24.714;2023-06-14T04:47:42;-6205.00;;;20.53;nan
7105;BME280;3594;42.152;24.714;2023-06-14T04:50:09;-7507.19;;;20.95;nan
7105;BME280;3594;42.152;24.714;2023-06-14T04:52:36;-5552.06;;;21.15;nan
7105;BME280;3594;42.152;24.714;2023-06-14T04:55:02;-3597.06;;;20.93;nan
7105;BME280;3594;42.152;24.714;2023-06-14T04:57:28;-2618.56;;;20.96;nan
7105;BME280;3594;42.152;24.714;2023-06-14T04:59:54;1301.53;;;21.24;nan
7105;BME280;3594;42.152;24.714;2023-06-14T05:02:23;2934.13;;;21.17;nan
7105;BME280;3594;42.152;24.714;2023-06-14T05:04:49;3595.09;;;21.58;nan
7105;BME280;3594;42.152;24.714;2023-06-14T05:07:15;5556.59;;;21.50;nan
7105;BME280;3594;42.152;24.714;2023-06-14T05:09:40;12777.91;;;21.93;nan
7105;BME280;3594;42.152;24.714;2023-06-14T05:12:06;14420.50;;;21.96;nan
7105;BME280;3594;42.152;24.714;2023-06-14T05:14:35;14415.72;;;21.83;nan
7105;BME280;3594;42.152;24.714;2023-06-14T05:17:01;11139.59;;;22.00;nan
7105;BME280;3594;42.152;24.714;2023-06-14T05:19:28;11788.94;;;21.78;nan
7105;BME280;3594;42.152;24.714;2023-06-14T05:21:53;16733.69;;;22.32;nan
7105;BME280;3594;42.152;24.714;2023-06-14T05:24:19;19686.84;;;22.15;nan
7105;BME280;3594;42.152;24.714;2023-06-14T05:26:45;23987.28;;;22.56;nan
7105;BME280;3594;42.152;24.714;2023-06-14T05:29:11;23322.56;;;22.45;nan
7105;BME280;3594;42.152;24.714;2023-06-14T05:31:37;26304.06;;;22.72;nan
7105;BME280;3594;42.152;24.714;2023-06-14T05:34:03;28938.50;;;22.61;nan
7105;BME280;3594;42.152;24.714;2023-06-14T05:36:28;26619.34;;;22.45;nan
7105;BME280;3594;42.152;24.714;2023-06-14T05:38:54;26635.72;;;22.75;nan
7105;BME280;3594;42.152;24.714;2023-06-14T05:41:27;31261.13;;;22.78;nan
7105;BME280;3594;42.152;24.714;2023-06-14T05:43:56;34599.06;;;23.25;nan
7105;BME280;3594;42.152;24.714;2023-06-14T05:46:23;35578.34;;;23.05;nan
7105;BME280;3594;42.152;24.714;2023-06-14T05:48:54;35263.69;;;23.28;nan
7105;BME280;3594;42.152;24.714;2023-06-14T05:51:20;36796.75;;;23.23;nan
7105;BME280;3594;42.152;24.714;2023-06-14T05:53:46;40022.38;;;23.39;nan
7105;BME280;3594;42.152;24.714;2023-06-14T05:56:13;42540.50;;;23.60;nan
7105;BME280;3594;42.152;24.714;2023-06-14T05:58:39;45925.13;;;23.60;nan
7105;BME280;3594;42.152;24.714;2023-06-14T06:01:04;47892.22;;;23.96;nan
7105;BME280;3594;42.152;24.714;2023-06-14T06:03:29;47647.31;;;23.93;nan
7105;BME280;3594;42.152;24.714;2023-06-14T06:05:55;47952.00;;;23.85;nan
7105;BME280;3594;42.152;24.714;2023-06-14T06:08:21;47735.75;;;24.19;nan
7105;BME280;3594;42.152;24.714;2023-06-14T06:10:46;47335.78;;;23.90;nan
7105;BME280;3594;42.152;24.714;2023-06-14T06:13:12;48745.00;;;23.79;nan
7105;BME280;3594;42.152;24.714;2023-06-14T06:15:37;49029.97;;;24.01;nan
7105;BME280;3594;42.152;24.714;2023-06-14T06:18:03;49920.41;;;24.38;nan
7105;BME280;3594;42.152;24.714;2023-06-14T06:20:29;53305.34;;;24.70;nan
7105;BME280;3594;42.152;24.714;2023-06-14T06:22:57;54593.53;;;24.64;nan
7105;BME280;3594;42.152;24.714;2023-06-14T06:25:23;55741.56;;;25.16;nan
7105;BME280;3594;42.152;24.714;2023-06-14T06:27:51;57034.66;;;25.22;nan
7105;BME280;3594;42.152;24.714;2023-06-14T06:30:17;57181.56;;;25.32;nan
7105;BME280;3594;42.152;24.714;2023-06-14T06:32:43;57456.41;;;25.33;nan
7105;BME280;3594;42.152;24.714;2023-06-14T06:35:08;57619.13;;;25.16;nan
7105;BME280;3594;42.152;24.714;2023-06-14T06:37:36;58156.50;;;25.65;nan
7105;BME280;3594;42.152;24.714;2023-06-14T06:40:03;57764.28;;;25.37;nan
7105;BME280;3594;42.152;24.714;2023-06-14T06:42:31;57971.19;;;25.35;nan
7105;BME280;3594;42.152;24.714;2023-06-14T06:44:56;57994.44;;;24.83;nan
7105;BME280;3594;42.152;24.714;2023-06-14T06:47:22;57255.38;;;24.31;nan
7105;BME280;3594;42.152;24.714;2023-06-14T06:49:47;57663.84;;;24.54;nan
7105;BME280;3594;42.152;24.714;2023-06-14T06:52:13;57778.88;;;24.87;nan
7105;BME280;3594;42.152;24.714;2023-06-14T06:54:39;57888.75;;;24.75;nan
7105;BME280;3594;42.152;24.714;2023-06-14T06:57:05;58378.81;;;24.84;nan
7105;BME280;3594;42.152;24.714;2023-06-14T06:59:31;58444.16;;;25.01;nan
7105;BME280;3594;42.152;24.714;2023-06-14T07:01:57;59002.59;;;24.49;nan
7105;BME280;3594;42.152;24.714;2023-06-14T07:04:23;58996.38;;;24.63;nan
7105;BME280;3594;42.152;24.714;2023-06-14T07:06:48;59198.88;;;24.84;nan
7105;BME280;3594;42.152;24.714;2023-06-14T07:09:14;59689.25;;;24.81;nan
7105;BME280;3594;42.152;24.714;2023-06-14T07:11:42;59378.09;;;24.95;nan
7105;BME280;3594;42.152;24.714;2023-06-14T07:14:07;59900.69;;;25.43;nan
7105;BME280;3594;42.152;24.714;2023-06-14T07:16:33;59956.31;;;25.75;nan
7105;BME280;3594;42.152;24.714;2023-06-14T07:18:59;59957.56;;;26.17;nan
7105;BME280;3594;42.152;24.714;2023-06-14T07:21:25;60378.06;;;26.52;nan
7105;BME280;3594;42.152;24.714;2023-06-14T07:23:54;62276.75;;;26.67;nan
7105;BME280;3594;42.152;24.714;2023-06-14T07:26:19;62138.34;;;26.02;nan
7105;BME280;3594;42.152;24.714;2023-06-14T07:28:46;62144.84;;;25.87;nan
7105;BME280;3594;42.152;24.714;2023-06-14T07:31:12;62286.28;;;26.10;nan
7105;BME280;3594;42.152;24.714;2023-06-14T07:33:37;62373.75;;;26.44;nan
7105;BME280;3594;42.152;24.714;2023-06-14T07:36:03;62350.50;;;26.53;nan
7105;BME280;3594;42.152;24.714;2023-06-14T07:38:29;62476.81;;;26.86;nan
7105;BME280;3594;42.152;24.714;2023-06-14T07:40:54;62293.25;;;26.12;nan
7105;BME280;3594;42.152;24.714;2023-06-14T07:43:20;62153.34;;;25.36;nan
7105;BME280;3594;42.152;24.714;2023-06-14T07:45:45;62257.97;;;25.76;nan
7105;BME280;3594;42.152;24.714;2023-06-14T07:48:11;62188.03;;;25.32;nan
7105;BME280;3594;42.152;24.714;2023-06-14T07:50:36;62227.28;;;25.32;nan
7105;BME280;3594;42.152;24.714;2023-06-14T07:53:02;62147.97;;;25.06;nan
7105;BME280;3594;42.152;24.714;2023-06-14T07:55:27;62130.19;;;24.95;nan
7105;BME280;3594;42.152;24.714;2023-06-14T07:57:54;62088.75;;;24.53;nan
7105;BME280;3594;42.152;24.714;2023-06-14T08:00:20;62019.06;;;24.29;nan
7105;BME280;3594;42.152;24.714;2023-06-14T08:02:46;62076.63;;;24.75;nan
7105;BME280;3594;42.152;24.714;2023-06-14T08:05:12;62088.41;;;24.67;nan
7105;BME280;3594;42.152;24.714;2023-06-14T08:07:38;62293.06;;;24.86;nan
7105;BME280;3594;42.152;24.714;2023-06-14T08:10:07;62201.47;;;25.53;nan
7105;BME280;3594;42.152;24.714;2023-06-14T08:12:33;62293.63;;;25.70;nan
7105;BME280;3594;42.152;24.714;2023-06-14T08:15:00;62390.50;;;26.10;nan
7105;BME280;3594;42.152;24.714;2023-06-14T08:17:26;62440.06;;;26.47;nan
7105;BME280;3594;42.152;24.714;2023-06-14T08:19:52;62405.25;;;26.00;nan
7105;BME280;3594;42.152;24.714;2023-06-14T08:22:22;62469.09;;;26.37;nan
7105;BME280;3594;42.152;24.714;2023-06-14T08:24:49;62454.25;;;26.24;nan
7105;BME280;3594;42.152;24.714;2023-06-14T08:27:14;62367.56;;;25.94;nan
7105;BME280;3594;42.152;24.714;2023-06-14T08:29:41;62314.03;;;25.53;nan
7105;BME280;3594;42.152;24.714;2023-06-14T08:32:07;62422.03;;;26.05;nan
7105;BME280;3594;42.152;24.714;2023-06-14T08:34:32;62356.00;;;25.49;nan
7105;BME280;3594;42.152;24.714;2023-06-14T08:36:57;62311.47;;;25.37;nan
7105;BME280;3594;42.152;24.714;2023-06-14T08:39:23;62411.94;;;25.87;nan
7105;BME280;3594;42.152;24.714;2023-06-14T08:41:48;62436.59;;;26.04;nan
7105;BME280;3594;42.152;24.714;2023-06-14T08:44:16;62523.25;;;26.67;nan
7105;BME280;3594;42.152;24.714;2023-06-14T08:46:42;62486.19;;;26.69;nan
7105;BME280;3594;42.152;24.714;2023-06-14T08:49:11;62580.06;;;26.80;nan
7105;BME280;3594;42.152;24.714;2023-06-14T08:51:37;62609.03;;;27.31;nan
7105;BME280;3594;42.152;24.714;2023-06-14T08:54:03;62634.28;;;27.37;nan
7105;BME280;3594;42.152;24.714;2023-06-14T08:56:30;62877.56;;;27.55;nan
7105;BME280;3594;42.152;24.714;2023-06-14T08:58:59;62531.59;;;26.72;nan
7105;BME280;3594;42.152;24.714;2023-06-14T09:01:30;62568.34;;;27.11;nan
7105;BME280;3594;42.152;24.714;2023-06-14T09:03:56;62691.91;;;27.58;nan
7105;BME280;3594;42.152;24.714;2023-06-14T09:06:23;62632.06;;;27.19;nan
7105;BME280;3594;42.152;24.714;2023-06-14T09:08:50;62756.63;;;28.03;nan
7105;BME280;3594;42.152;24.714;2023-06-14T09:11:18;62774.03;;;28.09;nan
7105;BME280;3594;42.152;24.714;2023-06-14T09:13:45;62700.38;;;27.58;nan
7105;BME280;3594;42.152;24.714;2023-06-14T09:16:11;62666.53;;;27.29;nan
7105;BME280;3594;42.152;24.714;2023-06-14T09:18:41;62613.19;;;26.86;nan
7105;BME280;3594;42.152;24.714;2023-06-14T09:21:09;62645.88;;;26.82;nan
7105;BME280;3594;42.152;24.714;2023-06-14T09:26:17;62589.03;;;27.25;nan
7105;BME280;3594;42.152;24.714;2023-06-14T09:28:44;62669.41;;;27.31;nan
7105;BME280;3594;42.152;24.714;2023-06-14T09:31:14;62729.13;;;27.51;nan
7105;BME280;3594;42.152;24.714;2023-06-14T09:33:49;62682.78;;;27.34;nan
7105;BME280;3594;42.152;24.714;2023-06-14T09:36:22;62726.72;;;27.54;nan
7105;BME280;3594;42.152;24.714;2023-06-14T09:38:58;62793.66;;;27.78;nan
7105;BME280;3594;42.152;24.714;2023-06-14T09:41:38;62824.59;;;28.38;nan
7105;BME280;3594;42.152;24.714;2023-06-14T09:44:07;62832.38;;;28.42;nan
7105;BME280;3594;42.152;24.714;2023-06-14T09:46:33;62836.88;;;28.23;nan
7105;BME280;3594;42.152;24.714;2023-06-14T09:49:00;63094.19;;;28.78;nan
7105;BME280;3594;42.152;24.714;2023-06-14T09:51:27;62923.22;;;28.90;nan
7105;BME280;3594;42.152;24.714;2023-06-14T09:53:53;62988.41;;;29.06;nan
7105;BME280;3594;42.152;24.714;2023-06-14T09:56:31;62984.66;;;29.32;nan
7105;BME280;3594;42.152;24.714;2023-06-14T09:58:58;62977.41;;;28.84;nan
7105;BME280;3594;42.152;24.714;2023-06-14T10:01:26;62952.50;;;29.16;nan
7105;BME280;3594;42.152;24.714;2023-06-14T10:04:02;62938.00;;;28.96;nan
7105;BME280;3594;42.152;24.714;2023-06-14T10:06:29;62962.88;;;29.09;nan
7105;BME280;3594;42.152;24.714;2023-06-14T10:08:57;62972.88;;;29.36;nan
7105;BME280;3594;42.152;24.714;2023-06-14T10:11:26;63073.97;;;29.74;nan
7105;BME280;3594;42.152;24.714;2023-06-14T10:13:52;63104.00;;;29.96;nan
7105;BME280;3594;42.152;24.714;2023-06-14T10:16:23;63137.44;;;29.93;nan
7105;BME280;3594;42.152;24.714;2023-06-14T10:19:04;63144.31;;;30.31;nan
7105;BME280;3594;42.152;24.714;2023-06-14T10:24:44;63004.06;;;29.42;nan
7105;BME280;3594;42.152;24.714;2023-06-14T10:27:10;63023.75;;;29.67;nan
7105;BME280;3594;42.152;24.714;2023-06-14T10:32:18;63002.19;;;29.34;nan
7105;BME280;3594;42.152;24.714;2023-06-14T10:34:44;63057.38;;;29.99;nan
7105;BME280;3594;42.152;24.714;2023-06-14T10:37:13;63132.06;;;30.41;nan
7105;BME280;3594;42.152;24.714;2023-06-14T10:39:44;63149.63;;;30.70;nan
7105;BME280;3594;42.152;24.714;2023-06-14T10:42:13;63246.22;;;30.81;nan
7105;BME280;3594;42.152;24.714;2023-06-14T10:44:44;63214.91;;;30.91;nan
7105;BME280;3594;42.152;24.714;2023-06-14T10:47:34;63258.56;;;31.10;nan
7105;BME280;3594;42.152;24.714;2023-06-14T10:50:05;63203.28;;;30.57;nan
7105;BME280;3594;42.152;24.714;2023-06-14T10:52:38;63271.53;;;30.92;nan
7105;BME280;3594;42.152;24.714;2023-06-14T10:55:14;63259.09;;;30.83;nan
7105;BME280;3594;42.152;24.714;2023-06-14T10:57:42;63187.03;;;30.92;nan
7105;BME280;3594;42.152;24.714;2023-06-14T11:00:09;63176.56;;;30.43;nan
7105;BME280;3594;42.152;24.714;2023-06-14T11:02:51;63143.53;;;30.56;nan
7105;BME280;3594;42.152;24.714;2023-06-14T11:05:29;63109.91;;;30.36;nan
7105;BME280;3594;42.152;24.714;2023-06-14T11:10:40;63166.34;;;30.57;nan
7105;BME280;3594;42.152;24.714;2023-06-14T11:13:07;63195.28;;;30.62;nan
7105;BME280;3594;42.152;24.714;2023-06-14T11:15:34;63248.25;;;30.97;nan
7105;BME280;3594;42.152;24.714;2023-06-14T11:18:01;63137.63;;;30.27;nan
7105;BME280;3594;42.152;24.714;2023-06-14T11:20:30;63175.06;;;30.33;nan
7105;BME280;3594;42.152;24.714;2023-06-14T11:22:55;63132.16;;;30.09;nan
7105;BME280;3594;42.152;24.714;2023-06-14T11:25:21;63099.16;;;29.89;nan
7105;BME280;3594;42.152;24.714;2023-06-14T11:27:49;63176.84;;;30.29;nan
7105;BME280;3594;42.152;24.714;2023-06-14T11:30:15;63142.22;;;30.04;nan
7105;BME280;3594;42.152;24.714;2023-06-14T11:32:41;63103.75;;;29.93;nan
7105;BME280;3594;42.152;24.714;2023-06-14T11:35:08;63027.19;;;29.42;nan
7105;BME280;3594;42.152;24.714;2023-06-14T11:37:35;63057.56;;;29.73;nan
7105;BME280;3594;42.152;24.714;2023-06-14T11:40:03;63066.13;;;29.85;nan
7105;BME280;3594;42.152;24.714;2023-06-14T11:42:33;63090.34;;;29.74;nan
7105;BME280;3594;42.152;24.714;2023-06-14T11:44:59;63113.88;;;30.00;nan
7105;BME280;3594;42.152;24.714;2023-06-14T11:47:24;63092.41;;;29.90;nan
7105;BME280;3594;42.152;24.714;2023-06-14T11:49:50;63309.16;;;29.91;nan
7105;BME280;3594;42.152;24.714;2023-06-14T11:52:16;63045.19;;;29.93;nan
7105;BME280;3594;42.152;24.714;2023-06-14T11:54:42;63046.78;;;29.71;nan
7105;BME280;3594;42.152;24.714;2023-06-14T11:57:07;62993.91;;;29.52;nan
7105;BME280;3594;42.152;24.714;2023-06-14T11:59:40;63064.44;;;29.68;nan
7105;BME280;3594;42.152;24.714;2023-06-14T12:02:06;63042.00;;;29.76;nan
7105;BME280;3594;42.152;24.714;2023-06-14T12:04:32;63011.06;;;29.44;nan
7105;BME280;3594;42.152;24.714;2023-06-14T12:07:08;63011.47;;;29.37;nan
7105;BME280;3594;42.152;24.714;2023-06-14T12:09:37;63052.38;;;29.25;nan
7105;BME280;3594;42.152;24.714;2023-06-14T12:12:03;62988.84;;;29.27;nan
7105;BME280;3594;42.152;24.714;2023-06-14T12:14:31;62900.44;;;28.28;nan
7105;BME280;3594;42.152;24.714;2023-06-14T12:17:05;62866.47;;;28.47;nan
7105;BME280;3594;42.152;24.714;2023-06-14T12:19:33;62911.72;;;28.80;nan
7105;BME280;3594;42.152;24.714;2023-06-14T12:22:06;62926.69;;;28.77;nan
7105;BME280;3594;42.152;24.714;2023-06-14T12:24:31;62920.63;;;29.02;nan
7105;BME280;3594;42.152;24.714;2023-06-14T12:26:58;62999.03;;;29.29;nan
7105;BME280;3594;42.152;24.714;2023-06-14T12:29:30;63022.50;;;29.26;nan
7105;BME280;3594;42.152;24.714;2023-06-14T12:31:55;62984.66;;;28.88;nan
7105;BME280;3594;42.152;24.714;2023-06-14T12:34:23;62934.16;;;29.11;nan
7105;BME280;3594;42.152;24.714;2023-06-14T12:36:55;62918.78;;;29.05;nan
7105;BME280;3594;42.152;24.714;2023-06-14T12:39:21;62992.81;;;29.19;nan
7105;BME280;3594;42.152;24.714;2023-06-14T12:41:47;62996.88;;;29.50;nan
7105;BME280;3594;42.152;24.714;2023-06-14T12:44:14;63055.25;;;29.44;nan
7105;BME280;3594;42.152;24.714;2023-06-14T12:46:41;63047.66;;;29.58;nan
7105;BME280;3594;42.152;24.714;2023-06-14T12:49:10;62929.66;;;29.03;nan
7105;BME280;3594;42.152;24.714;2023-06-14T12:51:36;63065.47;;;28.48;nan
7105;BME280;3594;42.152;24.714;2023-06-14T12:54:02;62897.91;;;28.68;nan
7105;BME280;3594;42.152;24.714;2023-06-14T12:56:28;62887.25;;;28.44;nan
7105;BME280;3594;42.152;24.714;2023-06-14T12:58:53;62858.06;;;28.86;nan
7105;BME280;3594;42.152;24.714;2023-06-14T13:01:19;62878.84;;;28.28;nan
7105;BME280;3594;42.152;24.714;2023-06-14T13:03:46;62955.31;;;28.79;nan
7105;BME280;3594;42.152;24.714;2023-06-14T13:06:12;62962.16;;;29.01;nan
7105;BME280;3594;42.152;24.714;2023-06-14T13:08:37;62934.09;;;28.72;nan
7105;BME280;3594;42.152;24.714;2023-06-14T13:11:02;62893.59;;;28.50;nan
7105;BME280;3594;42.152;24.714;2023-06-14T13:13:28;62947.81;;;28.88;nan
7105;BME280;3594;42.152;24.714;2023-06-14T13:15:53;62945.31;;;28.95;nan
7105;BME280;3594;42.152;24.714;2023-06-14T13:18:18;62973.25;;;29.02;nan
7105;BME280;3594;42.152;24.714;2023-06-14T13:20:45;62938.81;;;28.99;nan
7105;BME280;3594;42.152;24.714;2023-06-14T13:23:11;62938.03;;;28.80;nan
7105;BME280;3594;42.152;24.714;2023-06-14T13:25:37;62938.13;;;28.75;nan
7105;BME280;3594;42.152;24.714;2023-06-14T13:28:04;62869.03;;;28.35;nan
7105;BME280;3594;42.152;24.714;2023-06-14T13:30:31;62874.47;;;28.42;nan
7105;BME280;3594;42.152;24.714;2023-06-14T13:32:56;62943.13;;;28.89;nan
7105;BME280;3594;42.152;24.714;2023-06-14T13:35:23;63025.19;;;28.94;nan
7105;BME280;3594;42.152;24.714;2023-06-14T13:37:49;62974.25;;;29.12;nan
7105;BME280;3594;42.152;24.714;2023-06-14T13:40:14;63040.16;;;29.51;nan
7105;BME280;3594;42.152;24.714;2023-06-14T13:42:40;62989.06;;;29.46;nan
7105;BME280;3594;42.152;24.714;2023-06-14T13:45:06;62910.56;;;28.63;nan